createdAt,value
2018-06-18T00:00:23.034Z,3.60
2018-06-18T00:02:53.611Z,3.50
2018-06-18T00:05:22.667Z,3.80
2018-06-18T00:07:51.699Z,3.90
2018-06-18T00:10:20.564Z,3.50
2018-06-18T00:12:49.421Z,3.47
2018-06-18T00:15:18.250Z,3.60
2018-06-18T00:17:47.170Z,3.30
2018-06-18T00:20:17.009Z,3.70
2018-06-18T00:22:49.738Z,4.07
2018-06-18T00:25:20.201Z,3.60
2018-06-18T00:27:52.641Z,3.97
2018-06-18T00:30:21.658Z,3.80
2018-06-18T00:32:53.901Z,3.73
2018-06-18T00:35:22.321Z,3.73
2018-06-18T00:37:57.390Z,3.90
2018-06-18T00:40:25.778Z,4.17
2018-06-18T00:43:09.129Z,4.10
2018-06-18T00:45:38.286Z,4.03
2018-06-18T00:48:06.688Z,3.80
2018-06-18T00:50:35.660Z,4.07
2018-06-18T00:53:05.005Z,4.20
2018-06-18T00:55:38.718Z,4.60
2018-06-18T00:58:07.524Z,5.00
2018-06-18T01:00:36.657Z,4.33
2018-06-18T01:03:17.850Z,4.10
2018-06-18T01:05:46.739Z,4.43
2018-06-18T01:08:15.817Z,4.50
2018-06-18T01:10:44.659Z,3.90
2018-06-18T01:13:13.152Z,4.13
2018-06-18T01:15:43.142Z,4.00
2018-06-18T01:18:15.493Z,4.40
2018-06-18T01:20:44.425Z,4.07
2018-06-18T01:25:33.493Z,4.27
2018-06-18T01:28:02.289Z,4.10
2018-06-18T01:30:31.013Z,4.10
2018-06-18T01:33:00.361Z,4.23
2018-06-18T01:35:29.839Z,3.90
2018-06-18T01:37:59.138Z,3.93
2018-06-18T01:40:27.963Z,4.30
2018-06-18T01:42:57.418Z,3.83
2018-06-18T01:45:26.212Z,4.37
2018-06-18T01:47:55.260Z,4.07
2018-06-18T01:50:26.653Z,4.60
2018-06-18T01:52:55.561Z,4.37
2018-06-18T01:55:28.485Z,4.33
2018-06-18T01:57:57.764Z,4.67
2018-06-18T02:00:30.270Z,4.40
2018-06-18T02:02:58.959Z,4.70
2018-06-18T02:05:40.811Z,4.20
2018-06-18T02:08:09.677Z,4.43
2018-06-18T02:10:38.486Z,4.73
2018-06-18T02:13:07.430Z,4.30
2018-06-18T02:15:37.569Z,5.17
2018-06-18T02:18:06.586Z,4.77
2018-06-18T02:20:39.115Z,4.60
2018-06-18T02:23:08.550Z,4.60
2018-06-18T02:25:40.552Z,4.77
2018-06-18T02:28:14.632Z,4.90
2018-06-18T02:30:48.560Z,4.90
2018-06-18T02:33:22.316Z,4.20
2018-06-18T02:36:58.653Z,4.60
2018-06-18T02:39:27.313Z,4.53
2018-06-18T02:41:56.371Z,5.00
2018-06-18T02:44:25.719Z,4.87
2018-06-18T02:46:54.445Z,5.23
2018-06-18T02:49:23.570Z,5.27
2018-06-18T02:51:52.482Z,5.10
2018-06-18T02:54:21.896Z,4.67
2018-06-18T02:56:58.734Z,4.97
2018-06-18T02:59:27.165Z,4.73
2018-06-18T03:01:55.748Z,4.60
2018-06-18T03:04:24.215Z,5.43
2018-06-18T03:06:56.807Z,4.30
2018-06-18T03:09:25.983Z,5.30
2018-06-18T03:11:58.845Z,4.77
2018-06-18T03:14:27.956Z,5.03
2018-06-18T03:17:04.999Z,5.03
2018-06-18T03:21:40.585Z,5.20
2018-06-18T03:24:10.104Z,4.57
2018-06-18T03:26:45.333Z,4.67
2018-06-18T03:29:15.859Z,4.40
2018-06-18T03:31:45.296Z,4.20
2018-06-18T03:34:14.411Z,4.40
2018-06-18T03:36:43.278Z,4.17
2018-06-18T03:39:14.404Z,5.67
2018-06-18T03:41:45.705Z,4.00
2018-06-18T03:44:20.867Z,4.30
2018-06-18T03:46:51.881Z,4.60
2018-06-18T03:49:20.679Z,4.40
2018-06-18T03:51:49.127Z,4.10
2018-06-18T03:54:17.958Z,5.70
2018-06-18T03:56:46.549Z,4.60
2018-06-18T03:59:19.602Z,4.87
2018-06-18T04:02:00.737Z,4.20
2018-06-18T04:04:36.693Z,5.10
2018-06-18T04:07:11.870Z,4.40
2018-06-18T04:11:51.553Z,4.57
2018-06-18T04:14:25.508Z,5.00
2018-06-18T04:16:54.322Z,5.07
2018-06-18T04:19:26.797Z,4.90
2018-06-18T04:21:56.483Z,4.57
2018-06-18T04:24:29.419Z,4.50
2018-06-18T04:26:58.702Z,4.73
2018-06-18T04:29:31.778Z,4.50
2018-06-18T04:32:00.152Z,4.50
2018-06-18T04:34:34.895Z,4.63
2018-06-18T04:37:03.674Z,4.27
2018-06-18T04:39:36.854Z,5.17
2018-06-18T04:42:11.214Z,3.53
2018-06-18T04:44:48.700Z,4.50
2018-06-18T04:47:23.115Z,3.70
2018-06-18T04:49:57.339Z,3.87
2018-06-18T04:52:26.172Z,3.47
2018-06-18T04:54:55.141Z,3.20
2018-06-18T04:57:23.971Z,3.63
2018-06-18T04:59:55.591Z,3.90
2018-06-18T05:02:24.023Z,2.97
2018-06-18T05:04:52.962Z,3.60
2018-06-18T05:07:22.722Z,2.97
2018-06-18T05:09:57.542Z,3.00
2018-06-18T05:12:27.116Z,3.23
2018-06-18T05:14:56.084Z,3.50
2018-06-18T05:17:25.117Z,2.90
2018-06-18T05:19:55.817Z,3.20
2018-06-18T05:22:24.189Z,3.50
2018-06-18T05:24:58.187Z,3.77
2018-06-18T05:27:33.695Z,3.43
2018-06-18T05:30:03.676Z,2.97
2018-06-18T05:32:32.726Z,3.10
2018-06-18T05:35:01.754Z,3.37
2018-06-18T05:37:38.607Z,2.93
2018-06-18T05:40:08.354Z,3.30
2018-06-18T05:42:36.920Z,3.37
2018-06-18T05:45:18.589Z,3.10
2018-06-18T05:47:50.755Z,3.10
2018-06-18T05:50:19.209Z,3.20
2018-06-18T05:52:48.253Z,2.33
2018-06-18T05:55:17.397Z,2.73
2018-06-18T05:57:46.102Z,3.20
2018-06-18T06:02:51.293Z,3.10
2018-06-18T06:05:20.441Z,2.63
2018-06-18T06:07:49.828Z,2.73
2018-06-18T06:10:18.926Z,2.97
2018-06-18T06:12:47.361Z,2.77
2018-06-18T06:15:19.193Z,3.00
2018-06-18T06:17:48.344Z,2.90
2018-06-18T06:20:30.014Z,3.23
2018-06-18T06:23:00.589Z,2.53
2018-06-18T06:25:28.973Z,2.70
2018-06-18T06:27:58.051Z,2.60
2018-06-18T06:30:26.433Z,3.07
2018-06-18T06:32:55.237Z,2.80
2018-06-18T06:35:29.505Z,2.70
2018-06-18T06:37:59.124Z,3.43
2018-06-18T06:40:31.417Z,3.33
2018-06-18T06:43:00.245Z,3.20
2018-06-18T06:45:30.777Z,3.10
2018-06-18T06:47:59.500Z,2.90
2018-06-18T06:50:32.714Z,2.97
2018-06-18T06:53:02.261Z,3.23
2018-06-18T06:55:43.409Z,2.70
2018-06-18T06:58:13.966Z,2.97
2018-06-18T07:00:43.613Z,3.33
2018-06-18T07:03:12.071Z,3.70
2018-06-18T07:05:42.188Z,3.20
2018-06-18T07:08:11.410Z,3.47
2018-06-18T07:10:42.265Z,3.10
2018-06-18T07:13:13.758Z,3.80
2018-06-18T07:15:43.645Z,3.27
2018-06-18T07:18:12.515Z,4.03
2018-06-18T07:20:54.469Z,3.33
2018-06-18T07:23:24.336Z,3.47
2018-06-18T07:25:53.245Z,3.57
2018-06-18T07:28:22.815Z,3.23
2018-06-18T07:30:51.309Z,3.20
2018-06-18T07:33:21.090Z,2.87
2018-06-18T07:35:52.956Z,3.00
2018-06-18T07:38:23.233Z,3.30
2018-06-18T07:40:55.659Z,3.37
2018-06-18T07:43:24.965Z,3.60
2018-06-18T07:45:57.593Z,3.37
2018-06-18T07:48:26.748Z,3.17
2018-06-18T07:50:59.465Z,3.20
2018-06-18T07:53:28.401Z,3.07
2018-06-18T07:56:01.784Z,3.00
2018-06-18T07:58:30.726Z,2.90
2018-06-18T08:01:13.754Z,3.10
2018-06-18T08:03:44.173Z,2.60
2018-06-18T08:06:13.614Z,2.63
2018-06-18T08:08:43.125Z,3.03
2018-06-18T08:11:13.295Z,2.37
2018-06-18T08:13:42.210Z,2.60
2018-06-18T08:16:10.797Z,2.33
2018-06-18T08:18:39.931Z,2.13
2018-06-18T08:21:11.868Z,2.53
2018-06-18T08:23:41.738Z,2.30
2018-06-18T08:26:15.476Z,2.00
2018-06-18T08:28:44.736Z,2.23
2018-06-18T08:31:17.482Z,2.60
2018-06-18T08:33:46.897Z,2.03
2018-06-18T08:36:19.239Z,2.03
2018-06-18T08:38:48.095Z,2.10
2018-06-18T08:41:21.218Z,1.97
2018-06-18T08:43:50.762Z,2.10
2018-06-18T08:46:23.284Z,2.07
2018-06-18T08:48:58.955Z,2.37
2018-06-18T08:51:32.932Z,1.87
2018-06-18T08:54:07.209Z,1.60
2018-06-18T08:56:41.206Z,1.50
2018-06-18T08:59:16.091Z,1.90
2018-06-18T09:01:46.731Z,2.20
2018-06-18T09:04:18.869Z,2.17
2018-06-18T09:06:48.289Z,1.70
2018-06-18T09:09:19.518Z,1.63
2018-06-18T09:11:52.415Z,1.70
2018-06-18T09:16:53.993Z,1.97
2018-06-18T09:19:23.298Z,1.87
2018-06-18T09:21:52.602Z,1.77
2018-06-18T09:24:25.729Z,1.67
2018-06-18T09:27:00.101Z,1.63
2018-06-18T09:29:28.586Z,1.30
2018-06-18T09:31:58.813Z,1.20
2018-06-18T09:34:27.977Z,1.33
2018-06-18T09:36:57.083Z,1.50
2018-06-18T09:39:26.356Z,1.50
2018-06-18T09:41:54.782Z,1.43
2018-06-18T09:44:24.190Z,1.53
2018-06-18T09:46:53.058Z,1.50
2018-06-18T09:49:28.725Z,1.60
2018-06-18T09:52:03.244Z,1.30
2018-06-18T09:54:37.327Z,1.57
2018-06-18T09:57:15.845Z,1.50
2018-06-18T09:59:49.557Z,1.57
2018-06-18T10:02:18.331Z,1.90
2018-06-18T10:04:52.213Z,2.30
2018-06-18T10:07:22.256Z,1.20
2018-06-18T10:10:03.928Z,1.53
2018-06-18T10:12:33.605Z,1.37
2018-06-18T10:15:02.597Z,1.40
2018-06-18T10:17:33.089Z,1.30
2018-06-18T10:20:01.572Z,1.60
2018-06-18T10:22:30.409Z,1.53
2018-06-18T10:25:02.954Z,1.83
2018-06-18T10:27:32.635Z,1.43
2018-06-18T10:30:04.965Z,1.40
2018-06-18T10:32:39.780Z,1.60
2018-06-18T10:35:13.827Z,1.97
2018-06-18T10:37:48.589Z,1.83
2018-06-18T10:40:22.645Z,1.63
2018-06-18T10:42:58.298Z,1.80
2018-06-18T10:45:29.162Z,1.50
2018-06-18T10:47:59.185Z,1.30
2018-06-18T10:50:28.482Z,1.30
2018-06-18T10:52:59.609Z,1.70
2018-06-18T10:55:28.050Z,1.50
2018-06-18T10:57:57.493Z,1.87
2018-06-18T11:00:28.426Z,1.60
2018-06-18T11:02:57.703Z,1.30
2018-06-18T11:05:34.956Z,1.93
2018-06-18T11:08:05.785Z,1.90
2018-06-18T11:13:27.322Z,1.60
2018-06-18T11:16:05.251Z,1.60
2018-06-18T11:18:39.697Z,1.60
2018-06-18T11:21:14.022Z,1.80
2018-06-18T11:23:48.566Z,1.60
2018-06-18T11:26:25.086Z,1.80
2018-06-18T11:28:56.024Z,1.70
2018-06-18T11:31:28.565Z,1.97
2018-06-18T11:34:02.236Z,1.60
2018-06-18T11:36:32.850Z,1.70
2018-06-18T11:39:03.739Z,1.40
2018-06-18T11:41:33.509Z,1.37
2018-06-18T11:44:03.659Z,1.37
2018-06-18T11:46:36.359Z,1.13
2018-06-18T11:49:06.433Z,1.67
2018-06-18T11:51:37.974Z,1.70
2018-06-18T11:54:07.610Z,1.53
2018-06-18T11:56:40.745Z,1.80
2018-06-18T11:59:14.968Z,1.70
2018-06-18T12:03:53.211Z,1.70
2018-06-18T12:06:31.187Z,1.63
2018-06-18T12:09:04.985Z,1.60
2018-06-18T12:11:34.402Z,1.60
2018-06-18T12:14:03.083Z,1.90
2018-06-18T12:16:35.610Z,1.60
2018-06-18T12:19:05.697Z,1.70
2018-06-18T12:21:34.541Z,1.57
2018-06-18T12:24:03.997Z,1.80
2018-06-18T12:26:34.211Z,2.10
2018-06-18T12:29:02.784Z,1.90
2018-06-18T12:31:31.996Z,1.60
2018-06-18T12:34:01.378Z,1.67
2018-06-18T12:36:34.668Z,1.83
2018-06-18T12:39:21.030Z,1.80
2018-06-18T12:42:03.093Z,1.53
2018-06-18T12:44:40.093Z,1.83
2018-06-18T12:47:15.149Z,2.03
2018-06-18T12:49:49.219Z,1.80
2018-06-18T12:52:23.761Z,1.97
2018-06-18T12:55:02.406Z,1.70
2018-06-18T12:57:31.598Z,1.60
2018-06-18T13:00:04.845Z,1.60
2018-06-18T13:02:35.061Z,1.40
2018-06-18T13:05:12.353Z,1.67
2018-06-18T13:07:41.113Z,1.30
2018-06-18T13:10:13.103Z,1.50
2018-06-18T13:12:43.360Z,1.70
2018-06-18T13:15:15.961Z,1.40
2018-06-18T13:17:45.504Z,2.33
2018-06-18T13:20:17.977Z,1.67
2018-06-18T13:22:47.100Z,1.93
2018-06-18T13:25:22.394Z,1.57
2018-06-18T13:27:57.470Z,1.90
2018-06-18T13:30:26.350Z,1.80
2018-06-18T13:32:55.921Z,1.80
2018-06-18T13:35:25.226Z,2.10
2018-06-18T13:38:01.087Z,2.20
2018-06-18T13:40:35.910Z,1.90
2018-06-18T13:43:11.393Z,1.77
2018-06-18T13:45:45.081Z,1.73
2018-06-18T13:48:24.813Z,2.07
2018-06-18T13:50:54.686Z,1.80
2018-06-18T13:53:30.158Z,1.83
2018-06-18T13:55:58.988Z,1.97
2018-06-18T13:58:32.596Z,2.30
2018-06-18T14:01:01.111Z,2.10
2018-06-18T14:03:34.132Z,1.67
2018-06-18T14:06:03.036Z,2.27
2018-06-18T14:08:35.525Z,1.93
2018-06-18T14:11:04.429Z,1.97
2018-06-18T14:13:37.719Z,2.00
2018-06-18T16:07:57.213Z,1.60
2018-06-18T16:10:39.376Z,1.70
2018-06-18T16:13:08.311Z,1.70
2018-06-18T16:15:36.556Z,1.60
2018-06-18T16:18:07.112Z,1.87
2018-06-18T16:20:35.409Z,1.70
2018-06-18T16:23:04.095Z,1.87
2018-06-18T16:25:33.834Z,1.33
2018-06-18T16:28:02.331Z,1.57
2018-06-18T16:30:43.156Z,1.70
2018-06-18T16:33:12.030Z,1.60
2018-06-18T16:35:40.212Z,1.40
2018-06-18T16:38:08.742Z,1.70
2018-06-18T16:40:39.720Z,1.40
2018-06-18T16:43:10.260Z,1.50
2018-06-18T16:45:51.576Z,1.73
2018-06-18T16:48:20.584Z,1.80
2018-06-18T16:50:49.104Z,1.43
2018-06-18T16:53:18.484Z,1.60
2018-06-18T16:55:48.162Z,2.00
2018-06-18T16:58:16.391Z,1.40
2018-06-18T17:00:48.799Z,1.60
2018-06-18T17:03:17.509Z,1.67
2018-06-18T17:05:58.832Z,1.73
2018-06-18T17:08:28.686Z,2.20
2018-06-18T17:10:57.591Z,1.63
2018-06-18T17:13:26.418Z,1.97
2018-06-18T17:15:55.581Z,1.70
2018-06-18T17:18:23.812Z,1.60
2018-06-18T17:20:56.712Z,1.77
2018-06-18T17:23:26.839Z,1.90
2018-06-18T17:25:59.458Z,1.70
2018-06-18T17:28:28.199Z,2.07
2018-06-18T17:31:01.417Z,1.80
2018-06-18T17:33:29.917Z,2.07
2018-06-18T17:36:03.143Z,2.03
2018-06-18T17:38:36.902Z,1.70
2018-06-18T17:41:07.097Z,1.80
2018-06-18T17:43:36.619Z,1.67
2018-06-18T17:46:08.611Z,2.10
2018-06-18T17:48:37.732Z,2.17
2018-06-18T17:51:18.514Z,1.83
2018-06-18T17:53:47.928Z,2.23
2018-06-18T17:56:17.040Z,2.30
2018-06-18T17:58:46.187Z,1.90
2018-06-18T18:01:15.692Z,1.90
2018-06-18T18:03:48.169Z,2.17
2018-06-18T18:06:17.097Z,2.17
2018-06-18T18:08:46.173Z,2.10
2018-06-18T18:11:28.166Z,2.20
2018-06-18T18:13:57.241Z,2.13
2018-06-18T18:16:26.542Z,2.30
2018-06-18T18:18:56.792Z,2.20
2018-06-18T18:21:25.489Z,2.60
2018-06-18T18:23:54.772Z,2.90
2018-06-18T18:26:25.214Z,3.17
2018-06-18T18:28:54.655Z,3.23
2018-06-18T18:31:28.550Z,3.00
2018-06-18T18:33:57.578Z,3.30
2018-06-18T18:36:31.177Z,3.87
2018-06-18T18:39:00.161Z,3.47
2018-06-18T18:41:30.772Z,3.57
2018-06-18T18:44:02.111Z,3.73
2018-06-18T18:46:36.107Z,3.53
2018-06-18T18:49:05.160Z,5.33
2018-06-18T18:51:34.622Z,3.70
2018-06-18T18:54:03.176Z,3.40
2018-06-18T18:58:52.497Z,3.83
2018-06-18T19:01:21.670Z,3.53
2018-06-18T19:03:52.441Z,3.70
2018-06-18T19:06:21.345Z,3.87
2018-06-18T19:08:50.277Z,4.00
2018-06-18T19:11:19.635Z,3.97
2018-06-18T19:13:51.168Z,3.90
2018-06-18T19:16:19.625Z,4.30
2018-06-18T19:18:51.871Z,4.20
2018-06-18T19:21:20.307Z,4.67
2018-06-18T19:23:51.188Z,4.00
2018-06-18T19:26:21.281Z,4.43
2018-06-18T19:28:50.198Z,4.50
2018-06-18T19:31:22.188Z,4.87
2018-06-18T19:34:29.845Z,4.13
2018-06-18T19:36:59.342Z,4.03
2018-06-18T19:39:34.329Z,4.47
2018-06-18T19:42:03.974Z,4.10
2018-06-18T19:44:32.368Z,4.10
2018-06-18T19:47:05.153Z,4.70
2018-06-18T19:49:34.215Z,4.13
2018-06-18T19:52:02.427Z,4.70
2018-06-18T19:54:33.437Z,4.23
2018-06-18T19:57:04.085Z,4.67
2018-06-18T19:59:32.823Z,4.93
2018-06-18T20:02:05.278Z,5.07
2018-06-18T20:04:36.464Z,4.73
2018-06-18T20:07:06.203Z,5.13
2018-06-18T20:09:35.815Z,5.03
2018-06-18T20:12:17.151Z,3.43
2018-06-18T20:14:49.349Z,4.20
2018-06-18T20:17:19.132Z,3.60
2018-06-18T20:19:48.431Z,3.90
2018-06-18T20:22:17.333Z,3.43
2018-06-18T20:24:47.171Z,3.43
2018-06-18T20:27:15.835Z,3.10
2018-06-18T20:29:46.397Z,3.70
2018-06-18T20:32:18.172Z,3.33
2018-06-18T20:34:49.081Z,3.70
2018-06-18T20:37:20.341Z,2.83
2018-06-18T20:39:49.528Z,3.53
2018-06-18T20:42:22.674Z,3.40
2018-06-18T20:44:51.177Z,3.43
2018-06-18T20:47:26.538Z,3.50
2018-06-18T20:49:56.659Z,3.93
2018-06-18T20:52:26.061Z,3.70
2018-06-18T20:54:55.312Z,3.70
2018-06-18T20:57:26.948Z,3.33
2018-06-18T20:59:56.770Z,3.27
2018-06-18T21:02:29.611Z,3.70
2018-06-18T21:04:59.493Z,3.77
2018-06-18T21:07:33.596Z,3.93
2018-06-18T21:10:02.561Z,4.53
2018-06-18T21:12:33.576Z,4.07
2018-06-18T21:15:02.969Z,3.77
2018-06-18T21:17:34.552Z,3.93
2018-06-18T21:20:04.557Z,4.20
2018-06-18T21:22:37.177Z,4.40
2018-06-18T21:25:06.073Z,4.27
2018-06-18T21:27:47.679Z,3.87
2018-06-18T21:30:17.005Z,4.90
2018-06-18T21:32:45.573Z,4.30
2018-06-18T21:35:14.197Z,4.60
2018-06-18T21:37:45.866Z,4.70
2018-06-18T21:40:14.695Z,5.00
2018-06-18T21:42:46.177Z,5.03
2018-06-18T21:45:19.844Z,4.70
2018-06-18T21:47:48.611Z,5.70
2018-06-18T21:50:18.151Z,4.77
2018-06-18T21:52:50.654Z,5.70
2018-06-18T21:55:19.702Z,5.63
2018-06-18T21:57:54.905Z,6.07
2018-06-18T22:00:30.855Z,6.23
2018-06-18T22:03:00.169Z,6.10
2018-06-18T22:05:28.648Z,6.00
2018-06-18T22:07:57.412Z,5.70
2018-06-18T22:10:26.745Z,5.77
2018-06-18T22:12:57.569Z,5.30
2018-06-18T22:15:28.091Z,5.90
2018-06-18T22:18:05.167Z,5.50
2018-06-18T22:20:34.887Z,5.17
2018-06-18T22:23:03.696Z,5.37
2018-06-18T22:25:33.144Z,5.83
2018-06-18T22:28:10.299Z,5.27
2018-06-18T22:30:39.403Z,5.20
2018-06-18T22:33:09.539Z,5.07
2018-06-18T22:35:38.601Z,5.27
2018-06-18T22:38:08.619Z,5.17
2018-06-18T22:40:37.303Z,5.10
2018-06-18T22:43:10.561Z,4.90
2018-06-18T22:45:39.836Z,4.83
2018-06-18T22:48:12.572Z,5.80
2018-06-18T22:50:41.584Z,5.20
2018-06-18T22:53:22.595Z,4.97
2018-06-18T22:55:51.253Z,5.43
2018-06-18T22:58:20.283Z,5.37
2018-06-18T23:00:53.465Z,5.53
2018-06-18T23:03:22.099Z,5.40
2018-06-18T23:05:52.640Z,5.10
2018-06-18T23:08:22.345Z,5.43
2018-06-18T23:10:53.173Z,5.90
2018-06-18T23:13:28.168Z,6.07
2018-06-18T23:15:56.596Z,5.67
2018-06-18T23:18:25.676Z,5.90
2018-06-18T23:20:54.911Z,6.23
2018-06-18T23:23:36.627Z,7.37
2018-06-18T23:26:06.513Z,6.37
2018-06-18T23:28:39.572Z,6.57
2018-06-18T23:31:08.088Z,5.83
2018-06-18T23:33:37.009Z,6.40
2018-06-18T23:36:07.113Z,6.20
2018-06-18T23:38:35.420Z,6.00
2018-06-18T23:41:03.843Z,5.63
2018-06-18T23:43:35.620Z,6.57
2018-06-18T23:46:04.746Z,6.03
2018-06-18T23:48:37.430Z,5.90
2018-06-18T23:51:06.783Z,6.33
2018-06-18T23:53:39.593Z,5.77
2018-06-18T23:56:08.722Z,6.17
2018-06-18T23:58:50.561Z,5.60
